Time;durP1;ratioP1;P1;durP2;ratioP2;P2;SDS_P1;SDS_P2;PMS_P1;PMS_P2;Temp;Humidity;BMP_temperature;BMP_pressure;BME280_temperature;BME280_humidity;BME280_pressure;Samples;Min_cycle;Max_cycle;Signal;HPM_P1;HPM_P2
2021/05/11 00:01:46;;;;;;;10.55;5.90;;;;;;;;;;5071827;28;20379;-80
2021/05/11 00:04:13;;;;;;;11.10;6.35;;;;;;;;;;5083368;28;20055;-81
2021/05/11 00:06:39;;;;;;;7.97;5.70;;;;;;;;;;5093692;28;20040;-81
2021/05/11 00:09:05;;;;;;;7.85;5.85;;;;;;;;;;5074158;28;20086;-81
2021/05/11 00:11:31;;;;;;;9.77;6.15;;;;;;;;;;5074635;28;20470;-80
2021/05/11 00:13:57;;;;;;;7.78;5.85;;;;;;;;;;5073625;28;20037;-81
2021/05/11 00:16:23;;;;;;;8.82;6.32;;;;;;;;;;5084403;28;20119;-81
2021/05/11 00:18:49;;;;;;;7.28;5.90;;;;;;;;;;5073231;28;20124;-80
2021/05/11 00:28:33;;;;;;;8.73;6.13;;;;;;;;;;5090565;28;20111;-81
2021/05/11 00:33:25;;;;;;;7.90;6.18;;;;;;;;;;5082332;28;20115;-82
2021/05/11 00:35:51;;;;;;;7.32;6.13;;;;;;;;;;5088060;28;20028;-80
2021/05/11 00:38:17;;;;;;;6.88;5.70;;;;;;;;;;5092634;28;20482;-81
2021/05/11 00:43:09;;;;;;;7.32;6.10;;;;;;;;;;5087801;28;20408;-81
2021/05/11 00:45:35;;;;;;;7.18;6.00;;;;;;;;;;5072673;28;20078;-82
2021/05/11 00:48:00;;;;;;;7.05;5.93;;;;;;;;;;5079102;28;20036;-81
2021/05/11 00:50:26;;;;;;;11.45;6.10;;;;;;;;;;5093021;28;20051;-81
2021/05/11 00:52:53;;;;;;;7.30;6.00;;;;;;;;;;5091815;28;20373;-81
2021/05/11 00:55:19;;;;;;;7.60;6.10;;;;;;;;;;5073481;28;20478;-81
2021/05/11 00:57:46;;;;;;;8.70;6.10;;;;;;;;;;5086812;28;20266;-82
2021/05/11 01:00:12;;;;;;;7.93;6.10;;;;;;;;;;5092097;28;20105;-81
2021/05/11 01:02:38;;;;;;;9.13;5.80;;;;;;;;;;5077874;28;20031;-80
2021/05/11 01:05:05;;;;;;;8.40;6.28;;;;;;;;;;5091497;28;20283;-80
2021/05/11 01:07:32;;;;;;;6.53;5.72;;;;;;;;;;5093045;28;20024;-80
2021/05/11 01:09:58;;;;;;;6.50;5.72;;;;;;;;;;5092051;28;20028;-80
2021/05/11 01:12:24;;;;;;;9.23;6.28;;;;;;;;;;5071692;28;20078;-81
2021/05/11 01:14:51;;;;;;;6.90;6.20;;;;;;;;;;5085592;28;20033;-81
2021/05/11 01:17:23;;;;;;;7.00;5.95;;;;;;;;;;5087204;28;20215;-80
2021/05/11 01:19:59;;;;;;;7.95;6.55;;;;;;;;;;5072739;28;20067;-80
2021/05/11 01:24:58;;;;;;;8.32;5.85;;;;;;;;;;5082254;28;20032;-80
2021/05/11 01:54:27;;;;;;;8.38;6.43;;;;;;;;;;5090254;28;20458;-80
2021/05/11 02:18:30;;;;;;;7.60;6.90;;;;;;;;;;5080924;28;20043;-83
2021/05/11 02:23:40;;;;;;;8.52;7.05;;;;;;;;;;5090589;28;20437;-80
2021/05/11 02:26:06;;;;;;;7.85;7.05;;;;;;;;;;5075977;28;20036;-81
2021/05/11 02:28:32;;;;;;;7.97;6.60;;;;;;;;;;5076661;28;20095;-82
2021/05/11 02:30:58;;;;;;;8.00;7.20;;;;;;;;;;5076900;28;20043;-82
2021/05/11 02:33:25;;;;;;;7.90;6.90;;;;;;;;;;5081715;28;20419;-80
2021/05/11 02:35:51;;;;;;;7.80;7.00;;;;;;;;;;5070580;28;20081;-81
2021/05/11 02:38:16;;;;;;;8.63;7.10;;;;;;;;;;5079299;28;20035;-81
2021/05/11 02:40:42;;;;;;;7.78;7.00;;;;;;;;;;5073966;28;20039;-79
2021/05/11 02:43:14;;;;;;;9.35;6.65;;;;;;;;;;5079747;28;20465;-79
2021/05/11 02:45:40;;;;;;;8.30;6.88;;;;;;;;;;5090200;28;20823;-79
2021/05/11 02:48:06;;;;;;;9.57;7.15;;;;;;;;;;5096143;28;20140;-79
2021/05/11 02:50:34;;;;;;;8.53;7.30;;;;;;;;;;5092397;28;20024;-78
2021/05/11 02:53:00;;;;;;;7.50;6.70;;;;;;;;;;5090943;28;20028;-79
2021/05/11 02:55:26;;;;;;;7.93;6.93;;;;;;;;;;5089515;28;20050;-79
2021/05/11 02:57:54;;;;;;;8.50;7.20;;;;;;;;;;5090951;28;20024;-81
2021/05/11 03:00:21;;;;;;;8.70;7.18;;;;;;;;;;5090480;28;20098;-79
2021/05/11 03:02:47;;;;;;;7.68;6.88;;;;;;;;;;5079348;28;20025;-79
2021/05/11 03:05:14;;;;;;;7.60;6.88;;;;;;;;;;5070209;28;20071;-79
2021/05/11 03:07:40;;;;;;;8.13;6.95;;;;;;;;;;5070615;28;20032;-80
2021/05/11 03:10:06;;;;;;;8.10;7.03;;;;;;;;;;5082872;28;20041;-80
2021/05/11 03:12:32;;;;;;;9.90;6.80;;;;;;;;;;5090437;28;20134;-80
2021/05/11 03:14:58;;;;;;;7.50;6.70;;;;;;;;;;5090605;28;20024;-79
2021/05/11 03:17:24;;;;;;;8.70;6.97;;;;;;;;;;5090771;28;20397;-82
2021/05/11 03:19:50;;;;;;;6.95;6.28;;;;;;;;;;5090787;28;20119;-82
2021/05/11 03:22:16;;;;;;;7.70;6.88;;;;;;;;;;5090521;28;20480;-83
2021/05/11 03:24:45;;;;;;;7.38;6.47;;;;;;;;;;5076300;28;20036;-83
2021/05/11 03:27:12;;;;;;;7.22;6.50;;;;;;;;;;5070009;28;20041;-84
2021/05/11 03:29:39;;;;;;;7.07;6.38;;;;;;;;;;5070431;28;20029;-82
2021/05/11 03:32:06;;;;;;;7.68;6.88;;;;;;;;;;5070273;28;20028;-82
2021/05/11 03:34:32;;;;;;;;;;;;;;;;;;5070728;28;20025;-82
2021/05/11 03:36:58;;;;;;;7.97;6.60;;;;;;;;;;5100425;27;19914;-81
2021/05/11 03:39:24;;;;;;;8.68;6.53;;;;;;;;;;5100283;28;20726;-80
2021/05/11 03:41:57;;;;;;;7.20;6.50;;;;;;;;;;5094930;28;20405;-79
2021/05/11 03:44:26;;;;;;;7.32;6.63;;;;;;;;;;5093126;28;20034;-80
2021/05/11 03:46:52;;;;;;;7.93;6.32;;;;;;;;;;5094054;28;20048;-81
2021/05/11 03:49:18;;;;;;;8.07;6.95;;;;;;;;;;5094217;28;20024;-81
2021/05/11 03:51:44;;;;;;;7.00;6.30;;;;;;;;;;5094425;28;20051;-79
2021/05/11 03:54:11;;;;;;;7.43;6.45;;;;;;;;;;5080530;28;20052;-81
2021/05/11 03:56:37;;;;;;;7.32;5.93;;;;;;;;;;5073852;28;20441;-78
2021/05/11 03:59:05;;;;;;;7.10;6.00;;;;;;;;;;5073982;28;20103;-80
2021/05/11 04:01:31;;;;;;;6.70;6.00;;;;;;;;;;5074728;28;20071;-78
2021/05/11 04:03:57;;;;;;;11.18;6.07;;;;;;;;;;5073565;28;20471;-79
2021/05/11 04:06:23;;;;;;;8.37;6.00;;;;;;;;;;5073415;28;20029;-81
2021/05/11 04:16:46;;;;;;;6.63;5.32;;;;;;;;;;5073633;28;20598;-81
2021/05/11 04:19:12;;;;;;;6.65;5.95;;;;;;;;;;5073583;28;20032;-80
2021/05/11 04:21:38;;;;;;;6.80;5.60;;;;;;;;;;5074058;28;20039;-80
2021/05/11 04:24:04;;;;;;;6.45;5.45;;;;;;;;;;5078178;28;20266;-81
2021/05/11 04:26:32;;;;;;;9.77;5.45;;;;;;;;;;5093055;28;20059;-81
2021/05/11 04:28:59;;;;;;;7.03;5.45;;;;;;;;;;5087965;28;20033;-81
2021/05/11 04:31:25;;;;;;;6.03;5.43;;;;;;;;;;5092549;28;20032;-81
2021/05/11 04:33:51;;;;;;;5.90;5.28;;;;;;;;;;5109755;28;20027;-82
2021/05/11 04:36:17;;;;;;;6.43;5.38;;;;;;;;;;5087256;28;20478;-81
2021/05/11 04:38:43;;;;;;;6.00;5.18;;;;;;;;;;5080989;28;20044;-82
2021/05/11 04:41:10;;;;;;;7.47;5.10;;;;;;;;;;5082784;28;20107;-81
2021/05/11 04:43:37;;;;;;;5.47;4.97;;;;;;;;;;5093311;28;20028;-81
2021/05/11 04:48:32;;;;;;;6.68;5.13;;;;;;;;;;5091498;28;20051;-82
2021/05/11 04:50:58;;;;;;;5.60;5.10;;;;;;;;;;5093237;28;20028;-81
2021/05/11 04:53:24;;;;;;;6.68;5.05;;;;;;;;;;5093126;28;20061;-80
2021/05/11 04:55:50;;;;;;;5.30;4.80;;;;;;;;;;5089814;28;20020;-80
2021/05/11 04:58:16;;;;;;;6.57;5.00;;;;;;;;;;5075469;28;20271;-80
2021/05/11 05:00:43;;;;;;;6.95;5.30;;;;;;;;;;5079509;28;20115;-82
2021/05/11 05:03:12;;;;;;;5.78;5.20;;;;;;;;;;5085378;28;20551;-82
2021/05/11 05:05:38;;;;;;;9.15;5.20;;;;;;;;;;5083433;28;20032;-83
2021/05/11 05:08:04;;;;;;;11.43;4.72;;;;;;;;;;5091557;28;20020;-77
2021/05/11 05:10:30;;;;;;;6.70;4.85;;;;;;;;;;5090588;28;20122;-78
2021/05/11 05:12:56;;;;;;;11.10;4.72;;;;;;;;;;5082703;28;20111;-79
2021/05/11 05:15:23;;;;;;;6.57;4.90;;;;;;;;;;5089114;28;20103;-80
2021/05/11 05:17:49;;;;;;;13.32;5.75;;;;;;;;;;5072663;28;20024;-79
2021/05/11 05:20:15;;;;;;;9.50;4.97;;;;;;;;;;5078391;28;20050;-80
2021/05/11 05:22:42;;;;;;;10.63;4.70;;;;;;;;;;5085796;28;20047;-82
2021/05/11 05:27:48;;;;;;;8.48;4.68;;;;;;;;;;5072582;28;20589;-85
2021/05/11 05:30:14;;;;;;;7.90;4.70;;;;;;;;;;5078013;28;20063;-85
2021/05/11 05:32:40;;;;;;;7.88;4.85;;;;;;;;;;5075061;28;20098;-80
2021/05/11 05:35:06;;;;;;;8.27;4.50;;;;;;;;;;5080463;28;20041;-76
2021/05/11 05:37:33;;;;;;;18.30;5.10;;;;;;;;;;5072135;28;20120;-78
2021/05/11 05:40:01;;;;;;;10.13;4.70;;;;;;;;;;5073021;28;20348;-79
2021/05/11 05:42:27;;;;;;;5.35;4.40;;;;;;;;;;5071762;28;20406;-78
2021/05/11 05:44:53;;;;;;;8.97;4.87;;;;;;;;;;5072316;28;20044;-77
2021/05/11 05:47:19;;;;;;;7.70;4.80;;;;;;;;;;5071802;28;20044;-79
2021/05/11 05:49:47;;;;;;;6.13;4.35;;;;;;;;;;5074894;28;20112;-77
2021/05/11 05:52:22;;;;;;;8.57;4.68;;;;;;;;;;5072355;28;20051;-78
2021/05/11 05:54:48;;;;;;;5.43;3.13;;;;;;;;;;5072343;28;20042;-80
2021/05/11 05:57:14;;;;;;;5.38;3.60;;;;;;;;;;5071961;28;20039;-79
2021/05/11 05:59:41;;;;;;;4.68;3.40;;;;;;;;;;5073792;28;20043;-78
2021/05/11 06:02:14;;;;;;;6.35;3.92;;;;;;;;;;5072866;28;20033;-78
2021/05/11 06:04:40;;;;;;;6.75;3.60;;;;;;;;;;5084004;28;20044;-75
2021/05/11 06:07:07;;;;;;;4.93;3.60;;;;;;;;;;5082700;28;20168;-78
2021/05/11 06:09:33;;;;;;;7.07;3.97;;;;;;;;;;5103540;28;20016;-79
2021/05/11 06:17:19;;;;;;;4.07;3.13;;;;;;;;;;5087782;28;20393;-76
2021/05/11 06:19:46;;;;;;;5.20;3.20;;;;;;;;;;5090926;28;20020;-76
2021/05/11 06:22:12;;;;;;;4.18;3.22;;;;;;;;;;5091449;28;20040;-77
2021/05/11 06:24:38;;;;;;;4.82;3.00;;;;;;;;;;5091581;28;20393;-77
2021/05/11 06:27:04;;;;;;;5.73;3.20;;;;;;;;;;5091513;28;20032;-78
2021/05/11 06:29:33;;;;;;;5.18;3.40;;;;;;;;;;5088420;28;20028;-76
2021/05/11 06:31:59;;;;;;;4.13;2.90;;;;;;;;;;5070867;28;20021;-75
2021/05/11 06:34:25;;;;;;;3.77;3.00;;;;;;;;;;5070854;28;20425;-75
2021/05/11 06:36:51;;;;;;;5.20;3.00;;;;;;;;;;5072531;28;20056;-75
2021/05/11 06:39:17;;;;;;;4.43;3.10;;;;;;;;;;5091146;28;20044;-76
2021/05/11 06:41:50;;;;;;;5.22;3.13;;;;;;;;;;5089230;28;20035;-79
2021/05/11 06:55:00;;;;;;;3.28;2.67;;;;;;;;;;5070706;28;20071;-79
2021/05/11 06:57:27;;;;;;;4.28;2.85;;;;;;;;;;5074573;28;20032;-79
2021/05/11 06:59:53;;;;;;;4.38;2.88;;;;;;;;;;5090298;28;20012;-78
2021/05/11 07:02:19;;;;;;;4.07;2.72;;;;;;;;;;5091182;28;20038;-80
2021/05/11 07:04:51;;;;;;;4.35;3.08;;;;;;;;;;5082615;28;20067;-81
2021/05/11 07:07:17;;;;;;;3.55;2.70;;;;;;;;;;5068950;28;20021;-79
2021/05/11 07:14:58;;;;;;;3.50;2.57;;;;;;;;;;5070314;28;20032;-79
2021/05/11 07:17:24;;;;;;;3.03;2.60;;;;;;;;;;5069217;28;20356;-82
2021/05/11 07:19:52;;;;;;;3.33;2.40;;;;;;;;;;5079013;28;20459;-80
2021/05/11 07:22:17;;;;;;;3.28;2.60;;;;;;;;;;5090698;28;20488;-82
2021/05/11 07:24:46;;;;;;;2.60;2.40;;;;;;;;;;5090323;28;20122;-79
2021/05/11 07:30:09;;;;;;;3.58;2.80;;;;;;;;;;5090636;28;20068;-81
2021/05/11 07:32:37;;;;;;;3.85;2.70;;;;;;;;;;5090546;28;20020;-77
2021/05/11 07:35:04;;;;;;;3.45;2.58;;;;;;;;;;5074085;28;20036;-77
2021/05/11 07:37:30;;;;;;;3.58;2.70;;;;;;;;;;5070138;28;20154;-76
2021/05/11 07:39:56;;;;;;;3.42;2.60;;;;;;;;;;5070349;28;20020;-76
2021/05/11 07:42:22;;;;;;;2.80;2.50;;;;;;;;;;5070145;28;20051;-77
2021/05/11 07:44:51;;;;;;;3.30;2.60;;;;;;;;;;5069937;28;20302;-77
2021/05/11 07:50:47;;;;;;;3.58;2.60;;;;;;;;;;5070091;28;20059;-78
2021/05/11 08:14:36;;;;;;;2.83;2.50;;;;;;;;;;5070037;28;20094;-81
2021/05/11 08:17:02;;;;;;;2.60;2.40;;;;;;;;;;5069818;28;20071;-81
2021/05/11 08:19:46;;;;;;;4.00;2.47;;;;;;;;;;5070690;28;20463;-81
2021/05/11 08:22:31;;;;;;;3.40;2.50;;;;;;;;;;5077489;28;20130;-81
2021/05/11 08:30:08;;;;;;;2.90;2.33;;;;;;;;;;5088096;28;20079;-84
2021/05/11 08:32:34;;;;;;;2.47;2.22;;;;;;;;;;5114137;28;20030;-85
2021/05/11 08:35:00;;;;;;;2.78;2.35;;;;;;;;;;5114120;28;20036;-82
2021/05/11 08:37:26;;;;;;;2.95;2.35;;;;;;;;;;5114087;27;20050;-82
2021/05/11 08:39:52;;;;;;;2.40;2.20;;;;;;;;;;5094188;28;20028;-83
2021/05/11 08:42:18;;;;;;;2.40;2.20;;;;;;;;;;5100460;28;20034;-84
2021/05/11 08:44:44;;;;;;;2.77;2.43;;;;;;;;;;5113861;28;20019;-84
2021/05/11 08:47:11;;;;;;;3.20;2.40;;;;;;;;;;5113644;28;20899;-86
2021/05/11 08:49:39;;;;;;;3.13;2.30;;;;;;;;;;5113257;28;20295;-83
2021/05/11 08:52:17;;;;;;;2.55;2.35;;;;;;;;;;5113573;27;20015;-84
2021/05/11 08:55:10;;;;;;;3.10;2.35;;;;;;;;;;5097603;28;20020;-83
2021/05/11 09:25:49;;;;;;;2.45;2.25;;;;;;;;;;5074807;28;20442;-87
2021/05/11 09:28:32;;;;;;;2.25;2.05;;;;;;;;;;5090470;28;20101;-81
2021/05/11 09:33:30;;;;;;;2.30;2.10;;;;;;;;;;5091368;28;20028;-81
2021/05/11 10:01:45;;;;;;;4.78;2.17;;;;;;;;;;5075970;28;20122;-80
2021/05/11 10:36:28;;;;;;;2.20;2.00;;;;;;;;;;5081140;28;20051;-78
2021/05/11 10:38:55;;;;;;;3.47;2.00;;;;;;;;;;5091459;28;20039;-77
2021/05/11 10:48:24;;;;;;;3.33;2.10;;;;;;;;;;5070118;28;20036;-79
2021/05/11 10:50:51;;;;;;;2.67;2.10;;;;;;;;;;5072658;28;20040;-78
2021/05/11 10:53:36;;;;;;;2.65;2.17;;;;;;;;;;5083473;28;20058;-80
2021/05/11 10:56:21;;;;;;;4.30;2.40;;;;;;;;;;5074848;28;20477;-80
2021/05/11 10:59:05;;;;;;;2.00;1.77;;;;;;;;;;5083765;28;20099;-82
2021/05/11 11:01:32;;;;;;;1.90;1.77;;;;;;;;;;5084022;28;20143;-80
2021/05/11 11:04:09;;;;;;;2.58;1.90;;;;;;;;;;5090715;28;20028;-81
2021/05/11 11:06:53;;;;;;;2.67;1.70;;;;;;;;;;5090812;28;20447;-83
2021/05/11 11:09:19;;;;;;;2.83;1.80;;;;;;;;;;5074167;28;20028;-81
2021/05/11 11:11:46;;;;;;;2.13;1.77;;;;;;;;;;5101623;28;20488;-87
2021/05/11 11:14:13;;;;;;;2.00;1.80;;;;;;;;;;5090697;28;20055;-84
2021/05/11 11:16:39;;;;;;;1.70;1.60;;;;;;;;;;5090032;28;20028;-85
2021/05/11 11:19:08;;;;;;;4.63;1.70;;;;;;;;;;5090603;28;20571;-84
2021/05/11 11:24:40;;;;;;;2.20;1.60;;;;;;;;;;5090124;28;20491;-81
2021/05/11 11:27:06;;;;;;;2.70;1.90;;;;;;;;;;5070426;28;20028;-78
2021/05/11 11:29:32;;;;;;;3.55;1.80;;;;;;;;;;5089197;28;20020;-79
2021/05/11 11:31:59;;;;;;;1.95;1.75;;;;;;;;;;5089372;28;20074;-81
2021/05/11 11:34:36;;;;;;;2.50;1.67;;;;;;;;;;5090364;28;20058;-79
2021/05/11 11:37:04;;;;;;;1.85;1.75;;;;;;;;;;5090151;28;20426;-78
2021/05/11 11:39:30;;;;;;;2.47;1.73;;;;;;;;;;5088084;28;20032;-77
2021/05/11 11:41:56;;;;;;;;;;;;;;;;;;5080449;28;20056;-77
2021/05/11 11:44:23;;;;;;;2.20;1.90;;;;;;;;;;5089860;28;20366;-77
2021/05/11 11:47:09;;;;;;;2.45;1.80;;;;;;;;;;5073657;28;20494;-78
2021/05/11 11:49:41;;;;;;;2.43;1.70;;;;;;;;;;5081351;28;20021;-77
2021/05/11 11:52:12;;;;;;;1.60;1.50;;;;;;;;;;5073553;28;20028;-77
2021/05/11 11:54:43;;;;;;;2.80;1.80;;;;;;;;;;5079068;28;20037;-78
2021/05/11 12:00:06;;;;;;;1.90;1.73;;;;;;;;;;5094067;28;20054;-77
2021/05/11 12:02:32;;;;;;;3.35;1.85;;;;;;;;;;5094623;28;20028;-77
2021/05/11 12:05:14;;;;;;;1.60;1.50;;;;;;;;;;5093917;28;20394;-78
2021/05/11 12:08:22;;;;;;;6.07;1.90;;;;;;;;;;5100638;28;20257;-81
2021/05/11 12:10:30;;;;;;;1.70;1.60;;;;;;;;;;5076570;28;20028;-84
2021/05/11 12:12:57;;;;;;;1.88;1.50;;;;;;;;;;5074034;28;20112;-89
2021/05/11 12:15:23;;;;;;;2.05;1.70;;;;;;;;;;5073545;28;20037;-86
2021/05/11 12:18:06;;;;;;;2.00;1.80;;;;;;;;;;5074303;28;20032;-90
2021/05/11 12:20:33;;;;;;;1.90;1.70;;;;;;;;;;5073970;28;20119;-88
2021/05/11 12:23:16;;;;;;;2.97;1.70;;;;;;;;;;5073487;28;20024;-90
2021/05/11 12:25:43;;;;;;;1.70;1.60;;;;;;;;;;5073233;28;20467;-90
2021/05/11 12:28:10;;;;;;;2.00;1.80;;;;;;;;;;5074223;28;20482;-89
2021/05/11 12:30:39;;;;;;;1.80;1.70;;;;;;;;;;5074620;28;20492;-88
2021/05/11 12:33:06;;;;;;;1.77;1.67;;;;;;;;;;5103329;28;20023;-84
2021/05/11 12:35:32;;;;;;;1.70;1.60;;;;;;;;;;5114217;27;20475;-85
2021/05/11 12:38:03;;;;;;;1.80;1.50;;;;;;;;;;5114204;28;20028;-85
2021/05/11 12:40:45;;;;;;;1.92;1.70;;;;;;;;;;5113975;28;20035;-82
2021/05/11 12:43:11;;;;;;;2.35;1.85;;;;;;;;;;5113760;27;20067;-81
2021/05/11 12:45:50;;;;;;;1.45;1.40;;;;;;;;;;5102564;27;20067;-83
2021/05/11 12:48:16;;;;;;;1.70;1.60;;;;;;;;;;5077250;28;20028;-81
2021/05/11 12:50:43;;;;;;;2.15;1.77;;;;;;;;;;5087718;28;20067;-83
2021/05/11 12:53:35;;;;;;;1.83;1.73;;;;;;;;;;5073655;28;20028;-86
2021/05/11 13:01:37;;;;;;;1.60;1.50;;;;;;;;;;5114033;28;20479;-85
2021/05/11 13:25:44;;;;;;;1.67;1.52;;;;;;;;;;5072235;28;20067;-88
2021/05/11 13:36:08;;;;;;;1.58;1.52;;;;;;;;;;5092204;28;20272;-85
2021/05/11 13:38:34;;;;;;;1.60;1.50;;;;;;;;;;5092599;28;20012;-82
2021/05/11 13:41:01;;;;;;;1.50;1.40;;;;;;;;;;5092295;28;20024;-86
2021/05/11 13:43:27;;;;;;;1.60;1.50;;;;;;;;;;5075088;28;20475;-82
2021/05/11 13:45:53;;;;;;;1.67;1.50;;;;;;;;;;5071509;28;20388;-87
2021/05/11 13:48:25;;;;;;;1.75;1.58;;;;;;;;;;5072038;28;20051;-84
2021/05/11 13:53:23;;;;;;;1.50;1.40;;;;;;;;;;5071652;28;20055;-77
2021/05/11 14:04:34;;;;;;;1.90;1.50;;;;;;;;;;5049124;28;20414;-77
2021/05/11 14:07:00;;;;;;;1.90;1.65;;;;;;;;;;5068950;28;20036;-78
2021/05/11 14:09:26;;;;;;;1.80;1.40;;;;;;;;;;5093510;28;20049;-79
2021/05/11 14:11:52;;;;;;;1.60;1.50;;;;;;;;;;5091618;28;20020;-80
2021/05/11 14:14:18;;;;;;;1.60;1.50;;;;;;;;;;5091002;28;20276;-81
2021/05/11 14:16:45;;;;;;;1.60;1.50;;;;;;;;;;5091537;28;20250;-81
2021/05/11 14:19:11;;;;;;;1.45;1.45;;;;;;;;;;5091478;28;20278;-79
2021/05/11 14:21:37;;;;;;;;;;;;;;;;;;5086199;28;20051;-81
2021/05/11 14:24:04;;;;;;;1.67;1.50;;;;;;;;;;5086901;28;19957;-78
2021/05/11 14:26:30;;;;;;;1.83;1.60;;;;;;;;;;5080228;28;20041;-78
2021/05/11 14:28:56;;;;;;;1.63;1.52;;;;;;;;;;5078849;28;20401;-81
2021/05/11 14:31:23;;;;;;;1.50;1.40;;;;;;;;;;5105444;28;20598;-78
2021/05/11 14:33:49;;;;;;;;;;;;;;;;;;5109152;28;20377;-81
2021/05/11 14:36:15;;;;;;;1.70;1.60;;;;;;;;;;5102961;28;19922;-79
2021/05/11 14:38:41;;;;;;;1.60;1.50;;;;;;;;;;5090911;28;20050;-78
2021/05/11 14:41:08;;;;;;;2.25;1.70;;;;;;;;;;5091061;28;20024;-76
2021/05/11 14:43:35;;;;;;;1.70;1.60;;;;;;;;;;5081088;28;20034;-78
2021/05/11 14:46:04;;;;;;;2.70;1.83;;;;;;;;;;5098854;28;20062;-81
2021/05/11 14:48:31;;;;;;;1.50;1.40;;;;;;;;;;5075399;28;20024;-82
2021/05/11 14:50:58;;;;;;;1.50;1.40;;;;;;;;;;5082738;28;20056;-79
2021/05/11 14:53:24;;;;;;;12.95;2.58;;;;;;;;;;5080916;28;20076;-76
2021/05/11 14:55:50;;;;;;;4.60;1.80;;;;;;;;;;5070777;28;20111;-77
2021/05/11 14:58:16;;;;;;;2.08;1.77;;;;;;;;;;5071055;28;20023;-77
2021/05/11 15:00:42;;;;;;;4.38;1.65;;;;;;;;;;5079049;28;20432;-76
2021/05/11 15:03:11;;;;;;;2.87;1.60;;;;;;;;;;5092839;28;20466;-77
2021/05/11 15:05:37;;;;;;;3.03;1.88;;;;;;;;;;5090816;28;20659;-76
2021/05/11 15:08:03;;;;;;;3.90;1.67;;;;;;;;;;5090956;28;20409;-78
2021/05/11 15:10:29;;;;;;;2.88;1.73;;;;;;;;;;5090452;28;20074;-78
2021/05/11 15:12:55;;;;;;;2.30;1.60;;;;;;;;;;5090981;28;20024;-77
2021/05/11 15:15:21;;;;;;;3.88;1.70;;;;;;;;;;5102995;28;20036;-77
2021/05/11 15:20:14;;;;;;;2.20;1.70;;;;;;;;;;5100470;27;19908;-78
2021/05/11 15:22:40;;;;;;;2.03;1.60;;;;;;;;;;5098134;28;20028;-80
2021/05/11 15:25:07;;;;;;;3.25;1.67;;;;;;;;;;5090899;28;20043;-79
2021/05/11 15:27:34;;;;;;;1.80;1.70;;;;;;;;;;5090847;28;20107;-80
2021/05/11 15:30:00;;;;;;;1.70;1.60;;;;;;;;;;5091013;28;20411;-79
2021/05/11 15:32:38;;;;;;;1.60;1.50;;;;;;;;;;5100017;28;20034;-80
2021/05/11 15:35:07;;;;;;;2.03;1.60;;;;;;;;;;5104784;28;20020;-78
2021/05/11 15:37:33;;;;;;;1.60;1.50;;;;;;;;;;5081125;28;20032;-76
2021/05/11 15:39:59;;;;;;;1.85;1.45;;;;;;;;;;5081767;28;20012;-78
2021/05/11 15:42:25;;;;;;;2.92;1.40;;;;;;;;;;5070646;28;20099;-80
2021/05/11 15:44:51;;;;;;;2.13;1.60;;;;;;;;;;5094078;28;20054;-79
2021/05/11 15:47:17;;;;;;;1.43;1.33;;;;;;;;;;5091279;28;20052;-79
2021/05/11 15:49:44;;;;;;;3.67;2.50;;;;;;;;;;5093969;28;20532;-81
2021/05/11 15:52:10;;;;;;;5.03;3.50;;;;;;;;;;5091908;28;20093;-78
2021/05/11 15:54:36;;;;;;;3.67;2.90;;;;;;;;;;5099546;28;20034;-80
2021/05/11 15:57:02;;;;;;;3.07;2.53;;;;;;;;;;5111063;28;20265;-79
2021/05/11 15:59:28;;;;;;;2.00;1.80;;;;;;;;;;5110869;28;20461;-78
2021/05/11 16:01:54;;;;;;;2.40;2.10;;;;;;;;;;5108723;27;20058;-79
2021/05/11 16:04:20;;;;;;;2.87;1.87;;;;;;;;;;5090545;28;20028;-79
2021/05/11 16:06:46;;;;;;;3.03;1.80;;;;;;;;;;5089339;28;20090;-78
2021/05/11 16:09:12;;;;;;;4.53;1.98;;;;;;;;;;5098379;28;20027;-79
2021/05/11 16:11:38;;;;;;;4.10;1.73;;;;;;;;;;5108144;27;20036;-80
2021/05/11 16:14:04;;;;;;;2.50;1.77;;;;;;;;;;5110261;28;20027;-80
2021/05/11 16:16:31;;;;;;;1.70;1.60;;;;;;;;;;5110965;28;20027;-80
2021/05/11 16:18:57;;;;;;;1.98;1.60;;;;;;;;;;5110006;28;20272;-81
2021/05/11 16:21:23;;;;;;;3.00;1.50;;;;;;;;;;5110341;27;20028;-81
2021/05/11 16:23:49;;;;;;;2.30;1.50;;;;;;;;;;5110602;28;20020;-79
2021/05/11 16:26:15;;;;;;;1.92;1.70;;;;;;;;;;5098411;28;20028;-81
2021/05/11 16:28:41;;;;;;;1.83;1.48;;;;;;;;;;5085524;28;20028;-83
2021/05/11 16:31:07;;;;;;;2.73;1.70;;;;;;;;;;5083031;28;20024;-82
2021/05/11 16:33:33;;;;;;;1.63;1.50;;;;;;;;;;5073733;28;20032;-79
2021/05/11 16:35:59;;;;;;;2.75;1.70;;;;;;;;;;5080380;28;20025;-81
2021/05/11 16:38:25;;;;;;;3.20;1.83;;;;;;;;;;5077391;28;20131;-79
2021/05/11 16:40:51;;;;;;;4.87;1.90;;;;;;;;;;5087335;28;20809;-78
2021/05/11 16:43:19;;;;;;;1.77;1.60;;;;;;;;;;5088927;28;20036;-79
2021/05/11 16:45:45;;;;;;;2.33;1.98;;;;;;;;;;5080187;28;20064;-78
2021/05/11 16:48:11;;;;;;;1.60;1.50;;;;;;;;;;5074329;28;20117;-78
2021/05/11 16:50:37;;;;;;;2.43;1.70;;;;;;;;;;5072026;28;20028;-78
2021/05/11 16:53:06;;;;;;;1.60;1.50;;;;;;;;;;5072878;28;20076;-77
2021/05/11 16:55:32;;;;;;;2.00;1.80;;;;;;;;;;5089063;28;20424;-77
2021/05/11 16:57:58;;;;;;;2.40;2.20;;;;;;;;;;5076946;28;20474;-77
2021/05/11 17:00:25;;;;;;;1.90;1.80;;;;;;;;;;5077736;28;20020;-77
2021/05/11 17:02:51;;;;;;;2.17;1.90;;;;;;;;;;5088820;28;20066;-77
2021/05/11 17:05:21;;;;;;;2.17;1.77;;;;;;;;;;5090454;28;20159;-76
2021/05/11 17:07:48;;;;;;;2.90;1.83;;;;;;;;;;5072663;28;20275;-77
2021/05/11 17:10:14;;;;;;;2.15;1.80;;;;;;;;;;5082824;28;20032;-77
2021/05/11 17:12:40;;;;;;;1.80;1.65;;;;;;;;;;5091411;28;20488;-78
2021/05/11 17:15:07;;;;;;;2.42;2.05;;;;;;;;;;5081740;28;20044;-78
2021/05/11 17:17:33;;;;;;;;;;;;;;;;;;5073153;28;20029;-78
2021/05/11 17:19:59;;;;;;;2.47;1.67;;;;;;;;;;5086209;28;19919;-79
2021/05/11 17:22:26;;;;;;;4.33;1.70;;;;;;;;;;5087257;28;20752;-78
2021/05/11 17:24:52;;;;;;;2.85;1.60;;;;;;;;;;5075879;28;20171;-78
2021/05/11 17:27:18;;;;;;;2.05;1.60;;;;;;;;;;5072229;28;20052;-80
2021/05/11 17:29:44;;;;;;;1.48;1.38;;;;;;;;;;5072101;28;20451;-78
2021/05/11 17:32:12;;;;;;;3.23;1.63;;;;;;;;;;5077029;28;20024;-80
2021/05/11 17:34:38;;;;;;;5.20;1.90;;;;;;;;;;5084784;28;20028;-82
2021/05/11 17:37:06;;;;;;;3.10;1.80;;;;;;;;;;5082662;28;20047;-80
2021/05/11 17:39:32;;;;;;;1.65;1.40;;;;;;;;;;5086482;28;20106;-77
2021/05/11 17:41:58;;;;;;;1.70;1.60;;;;;;;;;;5091515;28;20039;-76
2021/05/11 17:44:24;;;;;;;1.70;1.50;;;;;;;;;;5091503;28;20094;-73
2021/05/11 17:46:50;;;;;;;1.83;1.50;;;;;;;;;;5092213;28;20161;-78
2021/05/11 17:49:16;;;;;;;1.33;1.23;;;;;;;;;;5082046;28;20075;-81
2021/05/11 17:51:42;;;;;;;4.03;1.60;;;;;;;;;;5072177;28;20067;-82
2021/05/11 17:54:08;;;;;;;1.67;1.50;;;;;;;;;;5082001;28;20042;-80
2021/05/11 17:56:34;;;;;;;4.13;1.70;;;;;;;;;;5089464;28;20417;-78
2021/05/11 17:59:00;;;;;;;8.60;1.97;;;;;;;;;;5092073;28;20107;-78
2021/05/11 18:01:26;;;;;;;1.60;1.50;;;;;;;;;;5091867;28;20020;-81
2021/05/11 18:03:55;;;;;;;2.13;1.50;;;;;;;;;;5088976;28;20043;-79
2021/05/11 18:06:21;;;;;;;1.77;1.40;;;;;;;;;;5090360;28;20540;-80
2021/05/11 18:08:47;;;;;;;4.17;1.50;;;;;;;;;;5075662;28;20107;-79
2021/05/11 18:11:13;;;;;;;4.70;1.70;;;;;;;;;;5081919;28;20039;-78
2021/05/11 18:13:39;;;;;;;5.00;1.80;;;;;;;;;;5089436;28;20051;-79
2021/05/11 18:16:09;;;;;;;8.80;2.43;;;;;;;;;;5081714;28;20507;-78
2021/05/11 18:18:35;;;;;;;9.15;2.10;;;;;;;;;;5089686;28;20028;-78
2021/05/11 18:21:01;;;;;;;8.17;1.83;;;;;;;;;;5089988;28;20028;-78
2021/05/11 18:23:27;;;;;;;3.10;1.90;;;;;;;;;;5089602;28;20063;-79
2021/05/11 18:25:53;;;;;;;6.18;1.90;;;;;;;;;;5090846;28;20787;-77
2021/05/11 18:28:19;;;;;;;5.78;2.40;;;;;;;;;;5088023;28;20032;-79
2021/05/11 18:30:45;;;;;;;5.37;2.07;;;;;;;;;;5087198;28;20085;-80
2021/05/11 18:33:13;;;;;;;3.37;1.80;;;;;;;;;;5091561;28;20375;-83
2021/05/11 18:35:39;;;;;;;3.67;1.65;;;;;;;;;;5091482;28;20036;-82
2021/05/11 18:38:07;;;;;;;1.80;1.70;;;;;;;;;;5089251;28;20036;-83
2021/05/11 18:40:34;;;;;;;4.18;1.80;;;;;;;;;;5091140;28;20039;-82
2021/05/11 18:43:00;;;;;;;3.28;1.80;;;;;;;;;;5076441;28;20111;-82
2021/05/11 18:45:27;;;;;;;2.80;1.63;;;;;;;;;;5070552;28;20044;-81
2021/05/11 18:47:57;;;;;;;4.20;1.98;;;;;;;;;;5069350;28;20098;-84
2021/05/11 18:50:27;;;;;;;2.08;1.73;;;;;;;;;;5070702;28;20024;-82
2021/05/11 18:52:53;;;;;;;1.92;1.70;;;;;;;;;;5070460;28;20564;-82
2021/05/11 18:55:20;;;;;;;2.95;1.83;;;;;;;;;;5071299;28;20475;-81
2021/05/11 18:57:46;;;;;;;3.92;2.13;;;;;;;;;;5075613;28;20487;-81
2021/05/11 19:00:13;;;;;;;2.42;1.70;;;;;;;;;;5070199;28;20032;-82
2021/05/11 19:02:39;;;;;;;5.32;2.13;;;;;;;;;;5070331;28;20103;-82
2021/05/11 19:05:05;;;;;;;5.75;2.20;;;;;;;;;;5070540;28;20036;-82
2021/05/11 19:07:31;;;;;;;4.07;2.40;;;;;;;;;;5086794;28;20536;-81
2021/05/11 19:09:57;;;;;;;3.20;2.20;;;;;;;;;;5090759;28;20028;-83
2021/05/11 19:12:23;;;;;;;5.93;2.33;;;;;;;;;;5070647;28;20283;-81
2021/05/11 19:14:51;;;;;;;4.65;2.35;;;;;;;;;;5081362;28;20392;-81
2021/05/11 19:17:17;;;;;;;6.43;2.50;;;;;;;;;;5070365;28;20024;-81
2021/05/11 19:19:43;;;;;;;4.38;2.67;;;;;;;;;;5070369;28;20029;-81
2021/05/11 19:22:09;;;;;;;4.03;2.40;;;;;;;;;;5069909;28;20040;-80
2021/05/11 19:24:36;;;;;;;4.97;2.60;;;;;;;;;;5071446;28;20103;-82
2021/05/11 19:27:02;;;;;;;5.15;2.53;;;;;;;;;;5070310;28;20036;-81
2021/05/11 19:29:28;;;;;;;4.00;2.45;;;;;;;;;;5070384;28;20039;-81